createdAt,value
2022-10-24T00:01:39.000Z,12.73
2022-10-24T00:06:41.753Z,12.70
2022-10-24T00:11:43.542Z,12.49
2022-10-24T00:16:45.207Z,12.38
2022-10-24T00:21:47.258Z,12.25
2022-10-24T00:26:48.916Z,12.18
2022-10-24T00:31:50.647Z,12.21
2022-10-24T00:36:52.426Z,12.27
2022-10-24T00:41:55.296Z,12.31
2022-10-24T00:47:04.660Z,12.24
2022-10-24T00:52:09.715Z,12.20
2022-10-24T00:57:14.107Z,12.13
2022-10-24T01:02:15.859Z,12.20
2022-10-24T01:07:52.689Z,12.31
2022-10-24T01:13:31.890Z,12.41
2022-10-24T01:18:48.277Z,12.38
2022-10-24T01:24:08.507Z,12.37
2022-10-24T01:29:19.986Z,12.29
2022-10-24T01:34:45.605Z,12.34
2022-10-24T01:39:52.555Z,12.41
2022-10-24T01:44:57.519Z,12.44
2022-10-24T01:50:04.009Z,12.50
2022-10-24T01:55:07.078Z,12.45
2022-10-24T02:00:15.935Z,12.40
2022-10-24T02:05:34.600Z,12.31
2022-10-24T02:10:42.740Z,12.39
2022-10-24T02:15:50.410Z,12.46
2022-10-24T02:20:52.033Z,12.45
2022-10-24T02:26:00.414Z,12.32
2022-10-24T02:31:16.608Z,12.17
2022-10-24T02:36:25.145Z,12.05
2022-10-24T02:41:32.201Z,12.06
2022-10-24T02:46:35.349Z,11.89
2022-10-24T02:51:41.196Z,11.87
2022-10-24T02:56:55.034Z,11.76
2022-10-24T03:01:57.156Z,11.65
2022-10-24T03:06:58.897Z,11.72
2022-10-24T03:12:00.892Z,11.61
2022-10-24T03:17:02.598Z,11.55
2022-10-24T03:22:04.566Z,11.45
2022-10-24T03:27:06.384Z,11.38
2022-10-24T03:32:08.114Z,11.29
2022-10-24T03:37:09.926Z,11.39
2022-10-24T03:42:11.985Z,11.34
2022-10-24T03:47:13.803Z,11.26
2022-10-24T03:52:15.947Z,11.20
2022-10-24T03:57:17.644Z,11.14
2022-10-24T04:02:19.423Z,11.17
2022-10-24T04:07:21.090Z,11.16
2022-10-24T04:12:23.748Z,11.08
2022-10-24T04:17:25.442Z,11.20
2022-10-24T04:22:27.251Z,10.95
2022-10-24T04:27:28.948Z,10.93
2022-10-24T04:32:30.622Z,11.06
2022-10-24T04:37:32.532Z,11.94
2022-10-24T04:42:34.202Z,11.85
2022-10-24T04:47:36.054Z,11.68
2022-10-24T04:52:37.722Z,12.13
2022-10-24T04:57:39.473Z,12.28
2022-10-24T05:02:41.199Z,12.63
2022-10-24T05:07:44.464Z,13.11
2022-10-24T05:12:46.782Z,13.92
2022-10-24T05:17:48.818Z,14.07
2022-10-24T05:22:50.773Z,14.49
2022-10-24T05:27:52.456Z,14.89
2022-10-24T05:32:54.124Z,14.90
2022-10-24T05:37:55.792Z,14.98
2022-10-24T05:42:57.516Z,14.89
2022-10-24T05:47:59.403Z,14.51
2022-10-24T05:53:01.706Z,14.83
2022-10-24T05:58:03.530Z,14.64
2022-10-24T06:03:05.187Z,14.14
2022-10-24T06:08:06.900Z,13.83
2022-10-24T06:13:08.580Z,14.12
2022-10-24T06:18:10.461Z,14.40
2022-10-24T06:23:12.234Z,14.99
2022-10-24T06:28:15.083Z,15.30
2022-10-24T06:33:16.834Z,14.94
2022-10-24T06:38:18.620Z,15.58
2022-10-24T06:43:20.824Z,15.78
2022-10-24T06:48:22.481Z,15.80
2022-10-24T06:53:24.151Z,15.87
2022-10-24T06:58:25.862Z,16.07
2022-10-24T07:03:27.536Z,16.39
2022-10-24T07:08:29.204Z,16.40
2022-10-24T07:13:31.034Z,16.76
2022-10-24T07:18:32.756Z,16.95
2022-10-24T07:23:35.482Z,17.23
2022-10-24T07:28:39.070Z,17.32
2022-10-24T07:33:41.554Z,17.48
2022-10-24T07:38:43.294Z,17.58
2022-10-24T07:43:45.737Z,17.61
2022-10-24T07:48:50.521Z,17.71
2022-10-24T07:53:52.176Z,17.90
2022-10-24T07:58:55.122Z,18.12
2022-10-24T08:03:57.178Z,18.19
2022-10-24T08:08:59.154Z,18.48
2022-10-24T08:14:02.421Z,18.51
2022-10-24T08:19:04.175Z,18.55
2022-10-24T08:24:06.171Z,18.72
2022-10-24T08:29:11.585Z,18.96
2022-10-24T08:34:14.593Z,18.95
2022-10-24T08:39:16.843Z,19.07
2022-10-24T08:44:28.339Z,19.01
2022-10-24T08:49:49.425Z,19.09
2022-10-24T08:54:53.885Z,19.46
2022-10-24T09:00:00.145Z,19.18
2022-10-24T09:05:14.841Z,19.37
2022-10-24T09:10:26.744Z,19.43
2022-10-24T09:15:30.480Z,19.50
2022-10-24T09:20:33.711Z,19.52
2022-10-24T09:25:36.712Z,19.64
2022-10-24T09:30:38.477Z,19.69
2022-10-24T09:35:40.595Z,19.84
2022-10-24T09:40:48.588Z,19.88
2022-10-24T09:46:05.441Z,20.06
2022-10-24T09:51:08.263Z,20.31
2022-10-24T09:56:14.665Z,20.47
2022-10-24T10:01:16.542Z,20.66
2022-10-24T10:06:20.500Z,20.56
2022-10-24T10:11:30.709Z,20.67
2022-10-24T10:16:36.785Z,20.63
2022-10-24T10:22:02.048Z,20.30
2022-10-24T10:27:24.893Z,20.27
2022-10-24T10:32:34.841Z,20.18
2022-10-24T10:37:45.424Z,20.07
2022-10-24T10:43:00.292Z,19.79
2022-10-24T10:48:33.935Z,19.75
2022-10-24T10:53:44.525Z,19.74
2022-10-24T10:59:12.149Z,19.71
2022-10-24T11:04:22.682Z,19.66
2022-10-24T11:09:31.196Z,19.72
2022-10-24T11:15:02.682Z,19.76
2022-10-24T11:20:04.372Z,19.66
2022-10-24T11:25:20.363Z,19.64
2022-10-24T11:30:42.308Z,19.61
2022-10-24T11:36:01.414Z,19.68
2022-10-24T11:41:44.508Z,19.39
2022-10-24T11:46:56.024Z,19.69
2022-10-24T11:52:06.234Z,19.77
2022-10-24T11:57:15.893Z,19.80
2022-10-24T12:02:38.702Z,19.67
2022-10-24T12:07:58.778Z,19.70
2022-10-24T12:13:21.358Z,19.71
2022-10-24T12:18:31.851Z,19.58
2022-10-24T12:23:33.924Z,19.61
2022-10-24T12:28:38.385Z,19.74
2022-10-24T12:33:41.127Z,19.61
2022-10-24T12:38:43.798Z,19.73
2022-10-24T12:43:49.397Z,19.61
2022-10-24T12:48:57.104Z,19.54
2022-10-24T12:54:13.870Z,19.46
2022-10-24T12:59:54.629Z,19.37
2022-10-24T13:05:33.902Z,19.33
2022-10-24T13:10:47.433Z,19.26
2022-10-24T13:15:58.040Z,19.18
2022-10-24T13:21:21.363Z,19.24
2022-10-24T13:26:37.924Z,19.19
2022-10-24T13:31:41.126Z,19.05
2022-10-24T13:36:44.398Z,19.19
2022-10-24T13:41:50.842Z,19.04
2022-10-24T13:47:01.274Z,19.18
2022-10-24T13:52:26.099Z,18.97
2022-10-24T13:57:36.395Z,18.84
2022-10-24T14:02:41.620Z,18.82
2022-10-24T14:07:44.974Z,18.90
2022-10-24T14:12:48.857Z,19.03
2022-10-24T14:17:56.808Z,18.98
2022-10-24T14:22:58.810Z,18.91
2022-10-24T14:28:10.005Z,18.64
2022-10-24T14:33:14.921Z,18.68
2022-10-24T14:38:18.268Z,18.69
2022-10-24T14:43:28.404Z,18.62
2022-10-24T14:48:30.376Z,18.70
2022-10-24T14:53:32.349Z,18.66
2022-10-24T14:58:35.765Z,18.54
2022-10-24T15:03:52.041Z,18.55
2022-10-24T15:09:17.019Z,18.43
2022-10-24T15:14:47.755Z,18.34
2022-10-24T15:19:50.847Z,18.29
2022-10-24T15:24:55.074Z,18.21
2022-10-24T15:29:57.333Z,18.10
2022-10-24T15:34:59.046Z,18.09
2022-10-24T15:40:07.632Z,18.00
2022-10-24T15:45:16.924Z,18.02
2022-10-24T15:55:31.801Z,17.87
2022-10-24T16:00:33.521Z,17.82
2022-10-24T16:05:39.450Z,17.69
2022-10-24T16:10:42.765Z,17.76
2022-10-24T16:15:44.684Z,17.71
2022-10-24T16:20:47.432Z,17.60
2022-10-24T16:25:49.110Z,17.43
2022-10-24T16:30:50.845Z,17.51
2022-10-24T16:35:52.578Z,17.37
2022-10-24T16:40:54.359Z,17.30
2022-10-24T16:46:01.639Z,17.07
2022-10-24T16:51:03.368Z,16.80
2022-10-24T16:56:05.270Z,16.74
2022-10-24T17:01:13.573Z,16.78
2022-10-24T17:06:15.988Z,16.58
2022-10-24T17:11:39.892Z,16.39
2022-10-24T17:16:40.052Z,16.33
2022-10-24T17:21:42.110Z,16.46
2022-10-24T17:26:44.044Z,16.37
2022-10-24T17:31:45.836Z,16.24
2022-10-24T17:36:55.628Z,16.11
2022-10-24T17:41:57.468Z,16.17
2022-10-24T17:46:59.314Z,16.21
2022-10-24T17:52:00.982Z,16.19
2022-10-24T17:57:05.076Z,16.11
2022-10-24T18:02:07.224Z,16.06
2022-10-24T18:07:09.364Z,16.15
2022-10-24T18:12:11.038Z,16.07
2022-10-24T18:17:12.790Z,16.19
2022-10-24T18:22:14.450Z,16.20
2022-10-24T18:27:16.123Z,16.24
2022-10-24T18:32:19.955Z,16.24
2022-10-24T18:37:21.753Z,16.12
2022-10-24T18:42:29.262Z,16.00
2022-10-24T18:47:31.220Z,16.01
2022-10-24T18:52:41.379Z,16.14
2022-10-24T18:57:43.935Z,15.92
2022-10-24T19:03:07.076Z,15.86
2022-10-24T19:08:14.700Z,15.72
2022-10-24T19:13:16.500Z,15.72
2022-10-24T19:18:18.665Z,15.63
2022-10-24T19:23:20.454Z,15.70
2022-10-24T19:28:22.325Z,15.55
2022-10-24T19:33:27.922Z,15.62
2022-10-24T19:38:29.687Z,15.42
2022-10-24T19:43:32.183Z,15.38
2022-10-24T19:48:36.850Z,15.41
2022-10-24T19:53:40.918Z,15.51
2022-10-24T19:58:43.114Z,15.65
2022-10-24T20:03:46.625Z,15.63
2022-10-24T20:08:49.494Z,15.53
2022-10-24T20:13:51.144Z,15.68
2022-10-24T20:18:52.963Z,15.85
2022-10-24T20:23:54.627Z,15.77
2022-10-24T20:28:56.369Z,15.76
2022-10-24T20:34:06.904Z,15.65
2022-10-24T20:39:10.573Z,15.84
2022-10-24T20:44:12.330Z,15.79
2022-10-24T20:49:13.982Z,15.78
2022-10-24T20:54:15.643Z,15.66
2022-10-24T20:59:17.367Z,15.80
2022-10-24T21:04:20.959Z,15.77
2022-10-24T21:09:22.870Z,15.90
2022-10-24T21:14:24.526Z,15.73
2022-10-24T21:19:26.791Z,15.75
2022-10-24T21:24:28.461Z,15.58
2022-10-24T21:29:34.232Z,15.64
2022-10-24T21:34:36.177Z,15.54
2022-10-24T21:39:37.846Z,15.36
2022-10-24T21:44:39.528Z,15.30
2022-10-24T21:49:41.211Z,15.40
2022-10-24T21:54:42.874Z,15.38
2022-10-24T21:59:44.602Z,15.28
2022-10-24T22:04:47.120Z,15.36
2022-10-24T22:09:48.819Z,15.38
2022-10-24T22:14:50.471Z,15.35
2022-10-24T22:19:52.514Z,15.17
2022-10-24T22:24:54.181Z,15.17
2022-10-24T22:29:55.840Z,15.19
2022-10-24T22:34:57.833Z,15.06
2022-10-24T22:39:59.806Z,14.98
2022-10-24T22:45:01.758Z,15.02
2022-10-24T22:50:23.057Z,14.84
2022-10-24T22:55:45.595Z,14.76
2022-10-24T23:00:54.116Z,14.70
2022-10-24T23:06:22.792Z,14.81
2022-10-24T23:11:24.793Z,14.98
2022-10-24T23:16:40.056Z,14.96
2022-10-24T23:21:48.881Z,14.97
2022-10-24T23:27:12.290Z,14.97
2022-10-24T23:32:26.602Z,14.87
2022-10-24T23:37:35.557Z,14.84
2022-10-24T23:42:37.603Z,14.89
2022-10-24T23:48:02.435Z,14.85
2022-10-24T23:53:28.541Z,14.64
2022-10-24T23:58:30.265Z,14.57
